createdAt,value
2019-01-24T00:00:54.238Z,1.70
2019-01-24T00:01:59.630Z,1.70
2019-01-24T00:03:05.491Z,1.70
2019-01-24T00:04:13.133Z,1.70
2019-01-24T00:05:21.187Z,1.60
2019-01-24T00:06:28.780Z,1.60
2019-01-24T00:07:34.316Z,1.60
2019-01-24T00:08:39.616Z,1.60
2019-01-24T00:09:45.414Z,1.60
2019-01-24T00:10:51.004Z,1.60
2019-01-24T00:11:56.411Z,1.60
2019-01-24T00:13:02.033Z,1.60
2019-01-24T00:14:07.803Z,1.60
2019-01-24T00:15:15.668Z,1.60
2019-01-24T00:16:21.138Z,1.60
2019-01-24T00:17:26.328Z,1.50
2019-01-24T00:18:31.685Z,1.50
2019-01-24T00:19:37.281Z,1.50
2019-01-24T00:20:42.617Z,1.50
2019-01-24T00:21:50.455Z,1.50
2019-01-24T00:22:55.844Z,1.50
2019-01-24T00:24:01.297Z,1.60
2019-01-24T00:25:10.484Z,1.60
2019-01-24T00:26:15.714Z,1.60
2019-01-24T00:27:21.080Z,1.60
2019-01-24T00:28:26.588Z,1.60
2019-01-24T00:29:33.921Z,1.60
2019-01-24T00:30:39.283Z,1.50
2019-01-24T00:31:44.753Z,1.50
2019-01-24T00:32:50.230Z,1.50
2019-01-24T00:33:55.387Z,1.50
2019-01-24T00:35:02.137Z,1.50
2019-01-24T00:36:07.680Z,1.50
2019-01-24T00:37:13.176Z,1.40
2019-01-24T00:38:21.098Z,1.50
2019-01-24T00:39:26.358Z,1.50
2019-01-24T00:40:32.235Z,1.50
2019-01-24T00:41:37.429Z,1.60
2019-01-24T00:42:43.120Z,1.50
2019-01-24T00:43:48.349Z,1.50
2019-01-24T00:44:53.844Z,1.60
2019-01-24T00:45:59.414Z,1.60
2019-01-24T00:47:05.401Z,1.50
2019-01-24T00:48:10.671Z,1.50
2019-01-24T00:49:16.022Z,1.50
2019-01-24T00:50:21.303Z,1.50
2019-01-24T00:51:26.639Z,1.50
2019-01-24T00:52:33.085Z,1.50
2019-01-24T00:53:38.750Z,1.50
2019-01-24T00:54:44.020Z,1.50
2019-01-24T00:55:49.460Z,1.50
2019-01-24T00:56:54.648Z,1.50
2019-01-24T00:58:00.000Z,1.50
2019-01-24T00:59:05.417Z,1.50
2019-01-24T01:00:20.019Z,1.50
2019-01-24T01:01:25.168Z,1.50
2019-01-24T01:02:30.516Z,1.50
2019-01-24T01:03:35.635Z,1.50
2019-01-24T01:04:41.250Z,1.50
2019-01-24T01:05:46.751Z,1.40
2019-01-24T01:06:52.149Z,1.40
2019-01-24T01:07:57.519Z,1.40
2019-01-24T01:09:03.100Z,1.50
2019-01-24T01:10:09.193Z,1.50
2019-01-24T01:11:17.415Z,1.40
2019-01-24T01:12:28.823Z,1.50
2019-01-24T01:13:34.112Z,1.50
2019-01-24T01:14:42.367Z,1.50
2019-01-24T01:15:47.734Z,1.40
2019-01-24T01:16:55.842Z,1.50
2019-01-24T01:18:01.163Z,1.50
2019-01-24T01:19:06.486Z,1.40
2019-01-24T01:20:14.638Z,1.40
2019-01-24T01:21:20.021Z,1.40
2019-01-24T01:22:25.591Z,1.40
2019-01-24T01:23:31.020Z,1.40
2019-01-24T01:24:36.379Z,1.40
2019-01-24T01:25:41.776Z,1.40
2019-01-24T01:26:47.449Z,1.40
2019-01-24T01:27:53.130Z,1.50
2019-01-24T01:28:58.465Z,1.40
2019-01-24T01:30:03.797Z,1.40
2019-01-24T01:31:09.133Z,1.40
2019-01-24T01:32:14.368Z,1.40
2019-01-24T01:33:19.522Z,1.40
2019-01-24T01:34:24.848Z,1.40
2019-01-24T01:35:30.373Z,1.40
2019-01-24T01:36:36.964Z,1.40
2019-01-24T01:37:42.214Z,1.40
2019-01-24T01:38:47.789Z,1.40
2019-01-24T01:39:53.029Z,1.40
2019-01-24T01:40:59.101Z,1.40
2019-01-24T01:42:04.376Z,1.30
2019-01-24T01:43:09.707Z,1.30
2019-01-24T01:44:15.534Z,1.30
2019-01-24T01:45:22.239Z,1.30
2019-01-24T01:46:27.509Z,1.30
2019-01-24T01:47:32.907Z,1.30
2019-01-24T01:48:38.344Z,1.30
2019-01-24T01:49:43.591Z,1.30
2019-01-24T01:50:48.777Z,1.30
2019-01-24T01:51:53.929Z,1.30
2019-01-24T01:52:59.098Z,1.30
2019-01-24T01:54:04.519Z,1.40
2019-01-24T01:55:09.981Z,1.30
2019-01-24T01:56:15.280Z,1.30
2019-01-24T01:57:20.577Z,1.30
2019-01-24T01:58:25.756Z,1.30
2019-01-24T01:59:30.955Z,1.30
2019-01-24T02:00:36.503Z,1.30
2019-01-24T02:01:41.651Z,1.30
2019-01-24T02:02:47.079Z,1.30
2019-01-24T02:03:52.336Z,1.30
2019-01-24T02:04:57.487Z,1.30
2019-01-24T02:06:02.720Z,1.30
2019-01-24T02:07:09.241Z,1.30
2019-01-24T02:08:14.453Z,1.30
2019-01-24T02:09:19.608Z,1.30
2019-01-24T02:10:25.580Z,1.30
2019-01-24T02:11:30.759Z,1.40
2019-01-24T02:12:36.216Z,1.30
2019-01-24T02:13:41.496Z,1.30
2019-01-24T02:14:46.744Z,1.30
2019-01-24T02:15:51.984Z,1.30
2019-01-24T02:16:57.328Z,1.30
2019-01-24T02:18:02.647Z,1.30
2019-01-24T02:19:09.147Z,1.30
2019-01-24T02:20:16.966Z,1.30
2019-01-24T02:21:22.398Z,1.30
2019-01-24T02:22:27.885Z,1.30
2019-01-24T02:23:33.066Z,2.00
2019-01-24T02:24:38.594Z,1.30
2019-01-24T02:25:43.995Z,1.40
2019-01-24T02:26:49.524Z,1.40
2019-01-24T02:27:55.331Z,1.30
2019-01-24T02:29:00.605Z,1.30
2019-01-24T02:30:07.531Z,1.40
2019-01-24T02:31:12.898Z,1.40
2019-01-24T02:32:18.089Z,1.30
2019-01-24T02:33:23.397Z,1.30
2019-01-24T02:34:28.531Z,1.30
2019-01-24T02:35:33.775Z,1.30
2019-01-24T02:36:39.029Z,0.60
2019-01-24T02:37:44.599Z,1.30
2019-01-24T02:38:49.827Z,1.30
2019-01-24T02:39:54.994Z,1.20
2019-01-24T02:41:00.317Z,1.20
2019-01-24T02:42:05.809Z,1.20
2019-01-24T02:43:10.989Z,1.20
2019-01-24T02:44:16.261Z,1.20
2019-01-24T02:45:22.736Z,1.20
2019-01-24T02:46:27.954Z,1.40
2019-01-24T02:47:33.288Z,1.30
2019-01-24T02:48:38.910Z,1.30
2019-01-24T02:49:44.124Z,1.30
2019-01-24T02:50:49.363Z,1.20
2019-01-24T02:51:54.815Z,1.20
2019-01-24T02:53:00.270Z,1.20
2019-01-24T02:54:05.734Z,1.20
2019-01-24T02:55:13.697Z,1.20
2019-01-24T02:56:19.026Z,1.20
2019-01-24T02:57:24.334Z,1.20
2019-01-24T02:58:29.499Z,1.20
2019-01-24T02:59:34.767Z,1.20
2019-01-24T03:00:42.912Z,1.10
2019-01-24T03:01:48.212Z,1.10
2019-01-24T03:02:53.621Z,1.20
2019-01-24T03:03:58.751Z,1.40
2019-01-24T03:05:05.394Z,1.10
2019-01-24T03:06:10.826Z,1.20
2019-01-24T03:07:16.592Z,1.10
2019-01-24T03:08:21.900Z,1.10
2019-01-24T03:09:27.219Z,1.10
2019-01-24T03:10:32.547Z,1.20
2019-01-24T03:11:38.037Z,1.20
2019-01-24T03:12:43.503Z,1.10
2019-01-24T03:13:50.062Z,1.20
2019-01-24T03:14:55.386Z,1.20
2019-01-24T03:16:00.605Z,1.10
2019-01-24T03:17:06.044Z,1.10
2019-01-24T03:18:11.284Z,1.10
2019-01-24T03:19:16.668Z,1.10
2019-01-24T03:20:21.970Z,1.10
2019-01-24T03:21:27.209Z,1.10
2019-01-24T03:22:32.480Z,1.10
2019-01-24T03:23:37.739Z,1.10
2019-01-24T03:24:42.929Z,1.10
2019-01-24T03:25:48.108Z,1.00
2019-01-24T03:26:53.549Z,1.00
2019-01-24T03:27:59.000Z,1.00
2019-01-24T03:29:05.642Z,1.10
2019-01-24T03:30:23.880Z,1.10
2019-01-24T03:31:32.054Z,1.00
2019-01-24T03:32:37.369Z,1.00
2019-01-24T03:33:43.879Z,1.00
2019-01-24T03:34:49.791Z,1.00
2019-01-24T03:35:55.077Z,1.00
2019-01-24T03:37:00.426Z,1.00
2019-01-24T03:38:05.882Z,0.90
2019-01-24T03:39:16.522Z,0.90
2019-01-24T03:40:22.310Z,1.00
2019-01-24T03:41:27.472Z,1.00
2019-01-24T03:42:32.643Z,1.00
2019-01-24T03:43:38.001Z,1.00
2019-01-24T03:44:43.240Z,1.00
2019-01-24T03:45:48.425Z,1.00
2019-01-24T03:46:59.972Z,1.00
2019-01-24T03:48:01.023Z,1.00
2019-01-24T03:49:06.474Z,0.90
2019-01-24T03:50:14.537Z,0.90
2019-01-24T03:51:19.797Z,1.00
2019-01-24T03:52:25.126Z,0.90
2019-01-24T03:53:30.550Z,0.90
2019-01-24T03:54:35.810Z,0.90
2019-01-24T03:55:41.071Z,0.90
2019-01-24T03:56:46.329Z,0.90
2019-01-24T03:57:51.713Z,0.90
2019-01-24T03:58:57.163Z,0.90
2019-01-24T04:00:07.110Z,0.90
2019-01-24T04:01:12.900Z,0.90
2019-01-24T04:02:20.903Z,0.90
2019-01-24T04:03:26.306Z,0.80
2019-01-24T04:04:32.040Z,0.80
2019-01-24T04:05:37.298Z,0.80
2019-01-24T04:06:42.571Z,0.80
2019-01-24T04:07:47.848Z,0.90
2019-01-24T04:08:53.311Z,0.90
2019-01-24T04:09:58.709Z,0.90
2019-01-24T04:11:06.468Z,0.90
2019-01-24T04:12:15.356Z,1.00
2019-01-24T04:13:20.799Z,0.90
2019-01-24T04:14:26.243Z,0.90
2019-01-24T04:15:31.668Z,0.90
2019-01-24T04:16:36.854Z,0.90
2019-01-24T04:17:42.063Z,1.00
2019-01-24T04:18:47.356Z,0.90
2019-01-24T04:19:52.776Z,0.90
2019-01-24T04:20:59.271Z,0.90
2019-01-24T04:22:04.558Z,0.90
2019-01-24T04:23:09.813Z,0.90
2019-01-24T04:24:15.127Z,1.60
2019-01-24T04:25:20.443Z,0.90
2019-01-24T04:28:13.628Z,0.90
2019-01-24T04:29:18.930Z,0.80
2019-01-24T04:30:25.267Z,0.80
2019-01-24T04:31:30.577Z,0.80
2019-01-24T04:32:35.903Z,0.80
2019-01-24T04:33:41.705Z,0.90
2019-01-24T04:34:46.981Z,0.90
2019-01-24T04:35:52.340Z,0.90
2019-01-24T04:36:57.691Z,0.80
2019-01-24T04:38:02.981Z,0.80
2019-01-24T04:39:09.289Z,0.90
2019-01-24T04:40:16.480Z,0.90
2019-01-24T04:41:21.752Z,0.90
2019-01-24T04:42:27.541Z,0.90
2019-01-24T04:43:33.431Z,0.80
2019-01-24T04:44:38.942Z,0.80
2019-01-24T04:45:44.670Z,1.90
2019-01-24T04:46:54.284Z,0.80
2019-01-24T04:48:02.652Z,0.80
2019-01-24T04:49:10.752Z,0.80
2019-01-24T04:50:22.701Z,0.80
2019-01-24T04:51:28.015Z,0.80
2019-01-24T04:52:33.397Z,0.70
2019-01-24T04:53:39.897Z,0.80
2019-01-24T04:54:49.270Z,0.80
2019-01-24T04:55:56.245Z,0.80
2019-01-24T04:57:07.057Z,0.90
2019-01-24T04:58:18.866Z,0.80
2019-01-24T04:59:24.423Z,0.90
2019-01-24T05:00:47.293Z,0.80
2019-01-24T05:02:03.293Z,0.90
2019-01-24T05:03:08.818Z,0.80
2019-01-24T05:04:14.065Z,0.80
2019-01-24T05:05:27.047Z,0.90
2019-01-24T05:06:26.367Z,0.80
2019-01-24T05:07:31.614Z,0.90
2019-01-24T05:08:36.911Z,0.80
2019-01-24T05:09:42.294Z,0.80
2019-01-24T05:10:51.008Z,0.80
2019-01-24T05:11:56.576Z,0.80
2019-01-24T05:13:02.066Z,0.80
2019-01-24T05:14:07.426Z,0.80
2019-01-24T05:15:14.584Z,0.80
2019-01-24T05:16:20.318Z,0.80
2019-01-24T05:17:26.091Z,0.80
2019-01-24T05:18:31.457Z,0.80
2019-01-24T05:19:37.454Z,0.70
2019-01-24T05:20:42.924Z,0.70
2019-01-24T05:21:48.711Z,0.80
2019-01-24T05:22:54.201Z,0.80
2019-01-24T05:23:59.711Z,0.80
2019-01-24T05:25:07.789Z,0.60
2019-01-24T05:26:13.428Z,0.80
2019-01-24T05:27:18.993Z,0.80
2019-01-24T05:28:24.741Z,0.80
2019-01-24T05:29:30.698Z,0.30
2019-01-24T05:30:47.256Z,0.70
2019-01-24T05:32:00.780Z,0.70
2019-01-24T05:33:10.560Z,0.70
2019-01-24T05:34:25.315Z,0.70
2019-01-24T05:35:34.955Z,-0.30
2019-01-24T05:36:57.361Z,0.70
2019-01-24T05:38:07.003Z,0.70
2019-01-24T05:39:17.499Z,0.70
2019-01-24T05:40:53.262Z,0.70
2019-01-24T05:42:03.469Z,0.70
2019-01-24T05:43:11.934Z,0.70
2019-01-24T05:44:17.509Z,0.70
2019-01-24T05:45:35.220Z,0.70
2019-01-24T05:46:44.701Z,0.70
2019-01-24T05:47:53.605Z,0.70
2019-01-24T05:48:59.083Z,0.70
2019-01-24T05:50:06.165Z,0.60
2019-01-24T05:51:11.568Z,0.70
2019-01-24T05:52:19.744Z,0.60
2019-01-24T05:53:23.864Z,0.70
2019-01-24T05:54:29.550Z,0.70
2019-01-24T05:55:34.972Z,0.60
2019-01-24T05:56:52.658Z,0.70
2019-01-24T05:57:59.925Z,0.70
2019-01-24T05:59:05.389Z,0.70
2019-01-24T06:00:17.349Z,0.70
2019-01-24T06:01:43.158Z,0.70
2019-01-24T06:03:11.435Z,0.70
2019-01-24T06:04:26.783Z,0.70
2019-01-24T06:05:33.191Z,0.70
2019-01-24T06:06:42.657Z,0.80
2019-01-24T06:09:33.870Z,0.80
2019-01-24T06:10:46.592Z,0.70
2019-01-24T06:11:53.173Z,0.60
2019-01-24T06:12:58.709Z,0.60
2019-01-24T06:14:08.242Z,0.60
2019-01-24T06:15:25.094Z,0.60
2019-01-24T06:16:31.386Z,0.70
2019-01-24T06:17:48.081Z,0.70
2019-01-24T06:18:53.840Z,0.60
2019-01-24T06:19:59.294Z,0.70
2019-01-24T06:23:00.418Z,0.70
2019-01-24T06:24:13.682Z,0.70
2019-01-24T06:25:25.541Z,0.80
2019-01-24T06:26:35.308Z,0.80
2019-01-24T06:27:46.019Z,0.80
2019-01-24T06:29:06.285Z,0.80
2019-01-24T06:30:18.172Z,0.70
2019-01-24T06:31:38.655Z,0.70
2019-01-24T06:34:13.465Z,0.60
2019-01-24T06:35:20.396Z,0.60
2019-01-24T06:36:43.065Z,0.60
2019-01-24T06:37:50.034Z,0.60
2019-01-24T06:39:01.764Z,0.60
2019-01-24T06:40:11.544Z,0.60
2019-01-24T06:41:42.164Z,0.60
2019-01-24T06:42:48.761Z,0.50
2019-01-24T06:43:54.435Z,0.50
2019-01-24T06:45:01.297Z,0.50
2019-01-24T06:46:06.851Z,0.50
2019-01-24T06:47:12.430Z,0.60
2019-01-24T06:48:18.491Z,0.60
2019-01-24T06:49:23.890Z,0.60
2019-01-24T06:50:30.176Z,0.50
2019-01-24T06:51:46.213Z,0.50
2019-01-24T06:52:52.041Z,0.50
2019-01-24T06:53:57.355Z,0.60
2019-01-24T06:55:02.916Z,1.10
2019-01-24T06:56:08.639Z,0.60
2019-01-24T06:57:13.929Z,0.60
2019-01-24T06:58:19.412Z,0.60
2019-01-24T06:59:32.025Z,0.60
2019-01-24T07:00:38.054Z,0.60
2019-01-24T07:01:55.107Z,0.60
2019-01-24T07:03:00.629Z,0.70
2019-01-24T07:04:06.249Z,0.60
2019-01-24T07:05:11.935Z,0.60
2019-01-24T07:06:18.744Z,0.60
2019-01-24T07:07:38.027Z,0.60
2019-01-24T07:08:56.051Z,0.60
2019-01-24T07:10:02.707Z,0.60
2019-01-24T07:11:08.284Z,0.60
2019-01-24T07:12:30.390Z,0.60
2019-01-24T07:13:38.772Z,0.60
2019-01-24T07:14:48.535Z,0.60
2019-01-24T07:15:54.054Z,0.60
2019-01-24T07:17:02.843Z,0.60
2019-01-24T07:18:11.027Z,0.60
2019-01-24T07:19:18.120Z,0.60
2019-01-24T07:20:23.773Z,0.60
2019-01-24T07:21:29.348Z,0.60
2019-01-24T07:22:35.987Z,0.50
2019-01-24T07:23:58.896Z,0.50
2019-01-24T07:25:30.278Z,0.50
2019-01-24T07:26:45.093Z,0.50
2019-01-24T07:28:09.342Z,0.60
2019-01-24T07:29:17.702Z,0.60
2019-01-24T07:30:23.784Z,0.50
2019-01-24T07:31:40.182Z,0.50
2019-01-24T07:32:47.675Z,0.50
2019-01-24T07:34:06.316Z,0.50
2019-01-24T07:35:22.142Z,0.50
2019-01-24T07:36:29.526Z,0.50
2019-01-24T07:37:37.450Z,0.50
2019-01-24T07:38:51.882Z,0.40
2019-01-24T07:39:57.607Z,0.50
2019-01-24T07:41:03.604Z,0.50
2019-01-24T07:42:09.343Z,0.50
2019-01-24T07:43:15.735Z,0.40
2019-01-24T07:44:21.664Z,0.40
2019-01-24T07:45:37.610Z,0.40
2019-01-24T07:46:43.077Z,0.40
2019-01-24T07:47:48.801Z,0.40
2019-01-24T07:49:55.060Z,0.40
2019-01-24T07:51:03.925Z,0.40
2019-01-24T07:52:09.510Z,0.40
2019-01-24T07:53:15.201Z,0.50
2019-01-24T07:54:23.733Z,0.50
2019-01-24T07:55:29.688Z,0.50
2019-01-24T07:56:35.736Z,0.50
2019-01-24T07:57:41.459Z,1.30
2019-01-24T07:58:47.502Z,0.50
2019-01-24T07:59:53.275Z,0.50
2019-01-24T08:00:58.935Z,0.50
2019-01-24T08:02:07.160Z,0.50
2019-01-24T08:03:18.370Z,0.60
2019-01-24T08:04:25.804Z,0.50
2019-01-24T08:05:31.985Z,0.50
2019-01-24T08:06:40.146Z,0.60
2019-01-24T08:07:47.851Z,0.50
2019-01-24T08:08:53.338Z,0.60
2019-01-24T08:10:00.270Z,0.60
2019-01-24T08:11:05.920Z,0.60
2019-01-24T08:12:12.868Z,0.60
2019-01-24T08:13:18.686Z,0.50
2019-01-24T08:14:27.398Z,1.30
2019-01-24T08:15:32.722Z,0.50
2019-01-24T08:16:38.318Z,1.00
2019-01-24T08:17:47.921Z,0.50
2019-01-24T08:18:53.407Z,0.50
2019-01-24T08:20:02.889Z,0.50
2019-01-24T08:21:09.733Z,0.60
2019-01-24T08:22:15.489Z,0.60
2019-01-24T08:23:22.720Z,0.50
2019-01-24T08:24:28.455Z,0.60
2019-01-24T08:25:34.628Z,0.50
2019-01-24T08:26:40.272Z,0.50
2019-01-24T08:27:46.904Z,0.50
2019-01-24T08:28:53.089Z,0.50
2019-01-24T08:30:01.430Z,0.50
2019-01-24T08:31:08.742Z,0.50
2019-01-24T08:32:15.444Z,0.50
2019-01-24T08:33:21.602Z,0.50
2019-01-24T08:34:27.544Z,0.50
2019-01-24T08:35:33.965Z,1.10
2019-01-24T08:36:39.802Z,0.50
2019-01-24T08:38:00.112Z,0.50
2019-01-24T08:39:41.428Z,0.50
2019-01-24T08:40:50.208Z,0.50
2019-01-24T08:42:04.646Z,0.60
2019-01-24T08:43:14.211Z,0.50
2019-01-24T08:44:20.895Z,0.50
2019-01-24T08:45:34.022Z,0.50
2019-01-24T08:47:05.095Z,0.50
2019-01-24T08:48:12.219Z,0.50
2019-01-24T08:49:20.667Z,0.50
2019-01-24T08:50:27.466Z,0.60
2019-01-24T08:51:33.350Z,0.60
2019-01-24T08:52:43.257Z,0.50
2019-01-24T08:53:48.690Z,0.50
2019-01-24T08:54:59.792Z,0.50
2019-01-24T08:56:06.508Z,0.50
2019-01-24T08:57:14.520Z,0.90
2019-01-24T08:58:25.188Z,1.10
2019-01-24T08:59:36.507Z,0.20
2019-01-24T09:00:45.631Z,0.50
2019-01-24T09:01:52.731Z,0.40
2019-01-24T09:02:58.683Z,0.40
2019-01-24T09:04:04.638Z,0.40
2019-01-24T09:05:45.957Z,0.40
2019-01-24T09:06:52.483Z,0.50
2019-01-24T09:07:59.065Z,-0.60
2019-01-24T09:09:11.962Z,0.40
2019-01-24T09:10:22.872Z,0.40
2019-01-24T09:11:28.200Z,0.40
2019-01-24T09:12:35.159Z,0.40
2019-01-24T09:13:40.785Z,0.50
2019-01-24T09:14:49.710Z,0.50
2019-01-24T09:15:55.463Z,0.50
2019-01-24T09:17:19.805Z,0.50
2019-01-24T09:18:36.393Z,0.50
2019-01-24T09:19:43.658Z,0.50
2019-01-24T09:20:51.982Z,0.40
2019-01-24T09:21:58.853Z,0.40
2019-01-24T09:23:06.487Z,0.40
2019-01-24T09:24:12.029Z,0.30
2019-01-24T09:25:18.279Z,0.70
2019-01-24T09:26:23.921Z,0.30
2019-01-24T09:27:29.982Z,0.30
2019-01-24T09:28:49.139Z,1.10
2019-01-24T09:30:23.581Z,0.20
2019-01-24T09:31:42.550Z,0.20
2019-01-24T09:33:11.931Z,0.20
2019-01-24T09:34:28.417Z,0.20
2019-01-24T09:35:51.290Z,0.30
2019-01-24T09:37:10.825Z,0.30
2019-01-24T09:38:17.508Z,0.30
2019-01-24T09:39:41.076Z,0.30
2019-01-24T09:41:03.935Z,0.20
2019-01-24T09:42:27.513Z,0.30
2019-01-24T09:43:52.825Z,0.20
2019-01-24T09:45:28.995Z,0.20
2019-01-24T09:47:03.120Z,0.20
2019-01-24T09:48:40.277Z,0.20
2019-01-24T09:50:04.833Z,0.20
2019-01-24T09:51:28.417Z,0.20
2019-01-24T09:52:51.911Z,0.20
2019-01-24T09:54:00.822Z,0.20
2019-01-24T09:55:28.755Z,0.20
2019-01-24T09:56:39.196Z,0.00
2019-01-24T09:57:49.633Z,0.20
2019-01-24T09:59:02.201Z,0.20
2019-01-24T10:00:22.943Z,0.20
2019-01-24T10:01:32.938Z,0.30
2019-01-24T10:02:42.362Z,1.40
2019-01-24T10:03:48.934Z,0.30
2019-01-24T10:05:00.842Z,0.40
2019-01-24T10:06:25.252Z,0.90
2019-01-24T10:07:36.474Z,0.40
2019-01-24T10:09:33.548Z,0.40
2019-01-24T10:10:56.583Z,0.40
2019-01-24T10:12:21.439Z,0.40
2019-01-24T10:13:27.100Z,0.30
2019-01-24T10:14:35.788Z,0.50
2019-01-24T10:15:43.751Z,0.30
2019-01-24T10:16:50.358Z,0.30
2019-01-24T10:17:59.517Z,0.30
2019-01-24T10:19:28.664Z,0.20
2019-01-24T10:20:34.903Z,0.20
2019-01-24T10:21:41.554Z,0.20
2019-01-24T10:22:47.321Z,0.20
2019-01-24T10:25:08.650Z,0.30
2019-01-24T10:26:51.772Z,0.30
2019-01-24T10:28:18.591Z,0.40
2019-01-24T10:29:28.487Z,0.30
2019-01-24T10:30:35.434Z,0.30
2019-01-24T10:31:42.881Z,0.30
2019-01-24T10:32:55.872Z,0.30
2019-01-24T10:34:33.614Z,0.30
2019-01-24T10:36:04.121Z,0.30
2019-01-24T10:37:29.603Z,0.30
2019-01-24T10:38:35.376Z,0.30
2019-01-24T10:39:40.901Z,0.30
2019-01-24T10:40:48.540Z,0.30
2019-01-24T10:41:54.192Z,0.20
2019-01-24T10:43:00.897Z,0.20
2019-01-24T10:44:09.188Z,-0.10
2019-01-24T10:45:15.758Z,0.20
2019-01-24T10:46:21.689Z,-0.40
2019-01-24T10:47:34.932Z,0.30
2019-01-24T10:48:42.300Z,0.20
2019-01-24T10:49:49.686Z,0.20
2019-01-24T10:50:58.955Z,0.30
2019-01-24T10:52:08.693Z,0.20
2019-01-24T10:53:49.653Z,0.30
2019-01-24T10:54:58.919Z,0.30
2019-01-24T10:56:43.250Z,0.10
2019-01-24T10:57:57.557Z,0.00
2019-01-24T10:59:21.955Z,-0.20
2019-01-24T11:00:42.168Z,-0.10
2019-01-24T11:01:56.721Z,-0.10
2019-01-24T11:03:08.263Z,-1.30
2019-01-24T11:04:18.484Z,-0.20
2019-01-24T11:05:27.161Z,0.30
2019-01-24T11:06:32.778Z,-0.20
2019-01-24T11:07:38.630Z,-0.10
2019-01-24T11:08:47.290Z,-0.10
2019-01-24T11:10:03.657Z,-0.10
2019-01-24T11:11:09.988Z,0.50
2019-01-24T11:12:40.574Z,-0.10
2019-01-24T11:13:47.242Z,-0.10
2019-01-24T11:15:00.814Z,0.00
2019-01-24T11:16:23.328Z,0.00
2019-01-24T11:17:43.379Z,0.10
2019-01-24T11:20:50.395Z,0.10
2019-01-24T11:21:57.778Z,0.00
2019-01-24T11:23:08.173Z,0.10
2019-01-24T11:24:16.764Z,0.10
2019-01-24T11:25:26.710Z,0.20
2019-01-24T11:26:32.738Z,1.20
2019-01-24T11:27:38.573Z,0.40
2019-01-24T11:28:45.724Z,0.20
2019-01-24T11:29:51.607Z,0.20
2019-01-24T11:30:57.157Z,0.20
2019-01-24T11:32:10.902Z,0.30
2019-01-24T11:34:51.460Z,0.20
2019-01-24T11:35:58.494Z,0.20
2019-01-24T11:37:08.069Z,0.20
2019-01-24T11:38:15.743Z,0.20
2019-01-24T11:39:22.313Z,0.20
2019-01-24T11:40:29.283Z,0.20
2019-01-24T11:41:39.952Z,0.20
2019-01-24T11:42:52.491Z,0.20
2019-01-24T11:44:00.681Z,0.10
2019-01-24T11:45:13.761Z,0.20
2019-01-24T11:46:24.997Z,0.20
2019-01-24T11:47:36.570Z,0.10
2019-01-24T11:48:46.471Z,0.10
2019-01-24T11:49:57.626Z,1.00
2019-01-24T11:51:12.805Z,0.20
2019-01-24T11:52:42.364Z,0.20
2019-01-24T11:54:18.132Z,0.20
2019-01-24T11:55:55.638Z,0.20
2019-01-24T11:57:21.365Z,0.30
2019-01-24T11:58:31.551Z,0.30
2019-01-24T11:59:38.143Z,0.30
2019-01-24T12:01:07.919Z,0.30
2019-01-24T12:03:27.926Z,0.40
2019-01-24T12:04:36.432Z,0.40
2019-01-24T12:05:47.491Z,0.40
2019-01-24T12:06:55.258Z,1.50
2019-01-24T12:08:02.232Z,0.50
2019-01-24T12:09:10.844Z,0.50
2019-01-24T12:10:21.045Z,0.50
2019-01-24T12:11:30.404Z,0.60
2019-01-24T12:12:36.274Z,0.60
2019-01-24T12:13:45.169Z,0.50
2019-01-24T12:14:50.860Z,0.50
2019-01-24T12:15:56.338Z,0.60
2019-01-24T12:17:03.153Z,0.90
2019-01-24T12:18:08.664Z,0.50
2019-01-24T12:19:14.932Z,0.60
2019-01-24T12:20:22.492Z,0.60
2019-01-24T12:21:57.029Z,0.60
2019-01-24T12:23:10.610Z,0.60
2019-01-24T12:24:19.462Z,0.70
2019-01-24T12:25:29.182Z,0.70
2019-01-24T12:26:45.199Z,0.70
2019-01-24T12:29:41.265Z,0.70
2019-01-24T12:30:50.008Z,0.80
2019-01-24T12:31:55.986Z,0.80
2019-01-24T12:33:04.055Z,0.80
2019-01-24T12:34:27.732Z,0.80
2019-01-24T12:35:34.691Z,0.80
2019-01-24T12:40:09.343Z,0.80
2019-01-24T12:41:21.218Z,0.90
2019-01-24T12:42:31.285Z,0.90
2019-01-24T12:43:43.101Z,0.90
2019-01-24T12:44:50.888Z,1.30
2019-01-24T12:46:00.993Z,0.90
2019-01-24T12:47:10.512Z,1.00
2019-01-24T12:48:18.982Z,1.00
2019-01-24T12:49:27.755Z,1.00
2019-01-24T12:50:33.860Z,1.00
2019-01-24T12:51:43.805Z,0.10
2019-01-24T12:52:50.891Z,0.90
2019-01-24T12:55:46.455Z,1.10
2019-01-24T12:56:55.645Z,1.20
2019-01-24T12:58:05.885Z,1.20
2019-01-24T12:59:11.736Z,1.20
2019-01-24T13:00:21.841Z,0.80
2019-01-24T13:01:27.673Z,1.30
2019-01-24T13:02:33.878Z,1.30
2019-01-24T13:03:43.804Z,1.20
2019-01-24T13:04:53.371Z,1.10
2019-01-24T13:05:59.325Z,1.10
2019-01-24T13:07:07.707Z,1.10
2019-01-24T13:08:26.107Z,1.10
2019-01-24T13:09:33.652Z,1.00
2019-01-24T13:10:40.298Z,1.10
2019-01-24T13:11:49.275Z,1.00
2019-01-24T13:12:57.165Z,1.10
2019-01-24T13:14:07.305Z,1.10
2019-01-24T13:15:17.323Z,1.10
2019-01-24T13:16:37.366Z,1.20
2019-01-24T13:17:51.387Z,1.10
2019-01-24T13:18:58.931Z,1.10
2019-01-24T13:20:05.390Z,1.20
2019-01-24T13:21:14.062Z,1.10
2019-01-24T13:22:20.675Z,1.20
2019-01-24T13:23:29.659Z,1.20
2019-01-24T13:24:36.609Z,1.20
2019-01-24T13:25:44.642Z,1.20
2019-01-24T13:26:51.301Z,1.30
2019-01-24T13:27:58.080Z,1.30
2019-01-24T13:29:04.959Z,1.00
2019-01-24T13:30:17.376Z,1.30
2019-01-24T13:31:26.535Z,1.30
2019-01-24T13:32:37.000Z,1.30
2019-01-24T13:34:11.040Z,1.30
2019-01-24T13:35:18.115Z,1.30
2019-01-24T13:36:35.429Z,1.20
2019-01-24T13:37:43.929Z,1.20
2019-01-24T13:38:51.281Z,1.10
2019-01-24T13:40:02.349Z,1.10
2019-01-24T13:41:21.825Z,1.20
2019-01-24T13:42:36.805Z,1.20
2019-01-24T13:43:47.251Z,1.30
2019-01-24T13:44:57.668Z,1.20
2019-01-24T13:46:23.538Z,1.10
2019-01-24T13:50:50.870Z,0.90
2019-01-24T13:51:59.776Z,1.00
2019-01-24T13:53:07.328Z,1.00
2019-01-24T13:54:14.761Z,1.00
2019-01-24T13:55:21.492Z,1.00
2019-01-24T13:56:29.240Z,1.00
2019-01-24T13:57:36.707Z,1.00
2019-01-24T13:58:44.323Z,1.00
2019-01-24T13:59:50.060Z,1.00
2019-01-24T14:00:55.623Z,1.00
2019-01-24T14:02:02.093Z,1.00
2019-01-24T14:03:42.274Z,1.00
2019-01-24T14:04:48.630Z,1.00
2019-01-24T14:05:56.132Z,1.00
2019-01-24T14:07:08.094Z,1.00
2019-01-24T14:08:17.521Z,1.10
2019-01-24T14:09:22.895Z,1.10
2019-01-24T14:10:28.463Z,1.10
2019-01-24T14:11:34.456Z,1.20
2019-01-24T14:12:42.624Z,1.10
2019-01-24T14:13:47.970Z,1.10
2019-01-24T14:15:06.101Z,1.10
2019-01-24T14:16:11.754Z,1.00
2019-01-24T14:17:17.879Z,1.00
2019-01-24T14:18:23.701Z,1.10
2019-01-24T14:19:29.692Z,1.10
2019-01-24T14:20:35.421Z,1.10
2019-01-24T14:21:44.328Z,1.00
2019-01-24T14:22:50.231Z,1.00
2019-01-24T14:23:55.783Z,1.00
2019-01-24T14:25:02.038Z,0.90
2019-01-24T14:26:09.272Z,0.90
2019-01-24T14:27:16.002Z,0.90
2019-01-24T14:28:24.069Z,1.00
2019-01-24T14:29:30.305Z,1.10
2019-01-24T14:30:39.885Z,1.10
2019-01-24T14:31:48.665Z,1.10
2019-01-24T14:33:01.226Z,1.10
2019-01-24T14:34:20.946Z,1.10
2019-01-24T14:35:28.290Z,1.10
2019-01-24T14:36:35.215Z,1.00
2019-01-24T14:37:40.964Z,1.00
2019-01-24T14:38:49.880Z,1.60
2019-01-24T14:39:55.232Z,1.00
2019-01-24T14:41:01.234Z,1.00
2019-01-24T14:42:07.227Z,1.00
2019-01-24T14:43:15.633Z,1.00
2019-01-24T14:44:25.280Z,0.90
2019-01-24T14:45:28.707Z,1.60
2019-01-24T14:46:34.350Z,0.90
2019-01-24T14:47:45.710Z,0.90
2019-01-24T14:48:53.032Z,0.90
2019-01-24T14:50:04.457Z,1.60
2019-01-24T14:51:10.565Z,0.90
2019-01-24T14:52:16.401Z,0.90
2019-01-24T14:53:22.278Z,0.80
2019-01-24T14:54:27.781Z,0.90
2019-01-24T14:55:35.953Z,0.90
2019-01-24T14:56:43.337Z,0.20
2019-01-24T14:57:49.270Z,0.90
2019-01-24T14:58:54.648Z,0.90
2019-01-24T15:00:00.384Z,1.10
2019-01-24T15:01:17.902Z,0.90
2019-01-24T15:02:26.787Z,0.80
2019-01-24T15:03:37.917Z,0.80
2019-01-24T15:04:50.211Z,0.80
2019-01-24T15:05:56.249Z,0.80
2019-01-24T15:07:03.293Z,0.80
2019-01-24T15:08:12.662Z,0.80
2019-01-24T15:09:27.766Z,0.80
2019-01-24T15:10:34.009Z,0.90
2019-01-24T15:11:44.901Z,0.90
2019-01-24T15:12:52.242Z,0.80
2019-01-24T15:13:58.422Z,1.00
2019-01-24T15:15:04.506Z,0.80
2019-01-24T15:16:10.653Z,0.80
2019-01-24T15:18:04.444Z,0.80
2019-01-24T15:19:10.735Z,0.80
2019-01-24T15:20:17.950Z,0.40
2019-01-24T15:21:37.827Z,1.00
2019-01-24T15:23:09.901Z,0.80
2019-01-24T15:24:15.837Z,0.80
2019-01-24T15:25:23.410Z,0.80
2019-01-24T15:26:46.382Z,0.80
2019-01-24T15:28:00.432Z,0.80
2019-01-24T15:29:06.288Z,0.70
2019-01-24T15:30:19.881Z,0.80
2019-01-24T15:31:26.597Z,0.80
2019-01-24T15:32:34.365Z,0.70
2019-01-24T15:34:44.159Z,0.80
2019-01-24T15:35:54.793Z,0.80
2019-01-24T15:37:02.838Z,0.90
2019-01-24T15:38:09.006Z,0.80
2019-01-24T15:39:20.597Z,0.80
2019-01-24T15:40:36.727Z,0.90
2019-01-24T15:41:48.177Z,0.80
2019-01-24T15:43:29.051Z,0.80
2019-01-24T15:45:12.323Z,0.70
2019-01-24T15:46:34.441Z,0.70
2019-01-24T15:47:45.359Z,0.70